sensor_id;sensor_type;location;lat;lon;timestamp;P1;durP1;ratioP1;P2;durP2;ratioP2
5774;SDS011;2913;51.120;6.772;2023-04-01T00:01:24;8.30;;;0.90;;
5774;SDS011;2913;51.120;6.772;2023-04-01T00:03:50;5.22;;;0.82;;
5774;SDS011;2913;51.120;6.772;2023-04-01T00:06:16;1.75;;;0.80;;
5774;SDS011;2913;51.120;6.772;2023-04-01T00:08:45;4.63;;;0.80;;
5774;SDS011;2913;51.120;6.772;2023-04-01T00:11:13;5.82;;;0.98;;
5774;SDS011;2913;51.120;6.772;2023-04-01T00:13:44;5.78;;;0.73;;
5774;SDS011;2913;51.120;6.772;2023-04-01T00:16:13;7.13;;;0.80;;
5774;SDS011;2913;51.120;6.772;2023-04-01T00:18:41;5.47;;;1.45;;
5774;SDS011;2913;51.120;6.772;2023-04-01T00:21:09;8.05;;;0.85;;
5774;SDS011;2913;51.120;6.772;2023-04-01T00:23:35;11.48;;;1.10;;
5774;SDS011;2913;51.120;6.772;2023-04-01T00:26:01;6.10;;;0.90;;
5774;SDS011;2913;51.120;6.772;2023-04-01T00:28:28;4.05;;;0.70;;
5774;SDS011;2913;51.120;6.772;2023-04-01T00:30:53;4.78;;;1.58;;
5774;SDS011;2913;51.120;6.772;2023-04-01T00:33:21;4.18;;;0.88;;
5774;SDS011;2913;51.120;6.772;2023-04-01T00:35:51;8.93;;;0.70;;
5774;SDS011;2913;51.120;6.772;2023-04-01T00:38:17;2.42;;;0.90;;
5774;SDS011;2913;51.120;6.772;2023-04-01T00:40:44;3.80;;;0.60;;
5774;SDS011;2913;51.120;6.772;2023-04-01T00:43:19;5.15;;;0.80;;
5774;SDS011;2913;51.120;6.772;2023-04-01T00:45:48;1.90;;;0.47;;
5774;SDS011;2913;51.120;6.772;2023-04-01T00:48:18;2.70;;;0.52;;
5774;SDS011;2913;51.120;6.772;2023-04-01T00:50:51;7.57;;;0.73;;
5774;SDS011;2913;51.120;6.772;2023-04-01T00:53:24;5.10;;;0.73;;
5774;SDS011;2913;51.120;6.772;2023-04-01T00:55:59;1.88;;;0.65;;
5774;SDS011;2913;51.120;6.772;2023-04-01T00:58:37;5.72;;;0.80;;
5774;SDS011;2913;51.120;6.772;2023-04-01T01:01:08;11.82;;;2.22;;
5774;SDS011;2913;51.120;6.772;2023-04-01T01:03:35;10.25;;;1.52;;
5774;SDS011;2913;51.120;6.772;2023-04-01T01:11:37;2.53;;;1.00;;
5774;SDS011;2913;51.120;6.772;2023-04-01T01:16:45;4.93;;;0.93;;
5774;SDS011;2913;51.120;6.772;2023-04-01T01:22:14;4.05;;;0.80;;
5774;SDS011;2913;51.120;6.772;2023-04-01T01:24:58;3.83;;;0.75;;
5774;SDS011;2913;51.120;6.772;2023-04-01T01:27:33;3.90;;;0.70;;
5774;SDS011;2913;51.120;6.772;2023-04-01T01:33:10;2.38;;;0.75;;
5774;SDS011;2913;51.120;6.772;2023-04-01T01:35:56;5.47;;;0.93;;
5774;SDS011;2913;51.120;6.772;2023-04-01T01:38:26;4.57;;;0.70;;
5774;SDS011;2913;51.120;6.772;2023-04-01T01:40:55;4.38;;;0.80;;
5774;SDS011;2913;51.120;6.772;2023-04-01T01:43:24;3.20;;;0.50;;
5774;SDS011;2913;51.120;6.772;2023-04-01T01:45:54;2.22;;;0.52;;
5774;SDS011;2913;51.120;6.772;2023-04-01T01:48:29;8.20;;;0.60;;
5774;SDS011;2913;51.120;6.772;2023-04-01T01:50:55;2.55;;;0.60;;
5774;SDS011;2913;51.120;6.772;2023-04-01T01:53:25;3.80;;;0.55;;
5774;SDS011;2913;51.120;6.772;2023-04-01T01:55:53;7.03;;;1.77;;
5774;SDS011;2913;51.120;6.772;2023-04-01T01:58:23;6.25;;;0.60;;
5774;SDS011;2913;51.120;6.772;2023-04-01T02:00:51;4.63;;;0.70;;
5774;SDS011;2913;51.120;6.772;2023-04-01T02:03:20;1.13;;;0.57;;
5774;SDS011;2913;51.120;6.772;2023-04-01T02:05:51;4.28;;;0.80;;
5774;SDS011;2913;51.120;6.772;2023-04-01T02:08:24;2.83;;;0.60;;
5774;SDS011;2913;51.120;6.772;2023-04-01T02:10:58;0.80;;;0.35;;
5774;SDS011;2913;51.120;6.772;2023-04-01T02:14:09;0.85;;;0.40;;
5774;SDS011;2913;51.120;6.772;2023-04-01T02:18:56;2.63;;;0.57;;
5774;SDS011;2913;51.120;6.772;2023-04-01T02:21:24;1.95;;;0.60;;
5774;SDS011;2913;51.120;6.772;2023-04-01T02:23:56;4.20;;;0.40;;
5774;SDS011;2913;51.120;6.772;2023-04-01T02:26:24;6.22;;;0.80;;
5774;SDS011;2913;51.120;6.772;2023-04-01T02:28:53;4.53;;;0.70;;
5774;SDS011;2913;51.120;6.772;2023-04-01T02:31:20;4.30;;;0.50;;
5774;SDS011;2913;51.120;6.772;2023-04-01T02:33:48;2.45;;;0.43;;
5774;SDS011;2913;51.120;6.772;2023-04-01T02:36:15;2.67;;;0.70;;
5774;SDS011;2913;51.120;6.772;2023-04-01T02:38:42;5.32;;;0.60;;
5774;SDS011;2913;51.120;6.772;2023-04-01T02:41:12;0.70;;;0.45;;
5774;SDS011;2913;51.120;6.772;2023-04-01T02:43:38;3.22;;;0.75;;
5774;SDS011;2913;51.120;6.772;2023-04-01T02:46:04;4.20;;;0.80;;
5774;SDS011;2913;51.120;6.772;2023-04-01T02:48:29;2.50;;;0.43;;
5774;SDS011;2913;51.120;6.772;2023-04-01T02:50:57;4.13;;;0.55;;
5774;SDS011;2913;51.120;6.772;2023-04-01T02:53:23;1.50;;;0.47;;
5774;SDS011;2913;51.120;6.772;2023-04-01T02:55:50;1.33;;;0.60;;
5774;SDS011;2913;51.120;6.772;2023-04-01T02:58:17;2.40;;;0.40;;
5774;SDS011;2913;51.120;6.772;2023-04-01T03:00:45;1.20;;;0.35;;
5774;SDS011;2913;51.120;6.772;2023-04-01T03:03:11;1.63;;;0.43;;
5774;SDS011;2913;51.120;6.772;2023-04-01T03:05:39;0.93;;;0.38;;
5774;SDS011;2913;51.120;6.772;2023-04-01T03:08:07;6.75;;;0.45;;
5774;SDS011;2913;51.120;6.772;2023-04-01T03:10:36;1.85;;;0.60;;
5774;SDS011;2913;51.120;6.772;2023-04-01T03:13:02;2.15;;;0.38;;
5774;SDS011;2913;51.120;6.772;2023-04-01T03:15:28;2.75;;;0.45;;
5774;SDS011;2913;51.120;6.772;2023-04-01T03:17:58;0.80;;;0.40;;
5774;SDS011;2913;51.120;6.772;2023-04-01T03:20:24;2.85;;;1.10;;
5774;SDS011;2913;51.120;6.772;2023-04-01T03:22:54;2.97;;;0.60;;
5774;SDS011;2913;51.120;6.772;2023-04-01T03:25:20;3.08;;;0.68;;
5774;SDS011;2913;51.120;6.772;2023-04-01T03:27:45;3.22;;;0.45;;
5774;SDS011;2913;51.120;6.772;2023-04-01T03:30:11;2.47;;;0.82;;
5774;SDS011;2913;51.120;6.772;2023-04-01T03:32:39;0.77;;;0.40;;
5774;SDS011;2913;51.120;6.772;2023-04-01T03:35:05;1.25;;;0.50;;
5774;SDS011;2913;51.120;6.772;2023-04-01T03:37:31;1.90;;;0.30;;
5774;SDS011;2913;51.120;6.772;2023-04-01T03:39:57;0.95;;;0.55;;
5774;SDS011;2913;51.120;6.772;2023-04-01T03:42:22;1.40;;;0.43;;
5774;SDS011;2913;51.120;6.772;2023-04-01T03:44:48;3.15;;;0.65;;
5774;SDS011;2913;51.120;6.772;2023-04-01T03:47:13;2.85;;;0.45;;
5774;SDS011;2913;51.120;6.772;2023-04-01T03:49:41;3.78;;;0.50;;
5774;SDS011;2913;51.120;6.772;2023-04-01T03:52:08;0.43;;;0.40;;
5774;SDS011;2913;51.120;6.772;2023-04-01T03:54:35;0.88;;;0.40;;
5774;SDS011;2913;51.120;6.772;2023-04-01T03:57:04;3.03;;;0.95;;
5774;SDS011;2913;51.120;6.772;2023-04-01T03:59:32;1.27;;;0.40;;
5774;SDS011;2913;51.120;6.772;2023-04-01T04:01:59;3.95;;;0.50;;
5774;SDS011;2913;51.120;6.772;2023-04-01T04:04:24;4.18;;;0.60;;
5774;SDS011;2913;51.120;6.772;2023-04-01T04:06:51;1.90;;;0.75;;
5774;SDS011;2913;51.120;6.772;2023-04-01T04:09:19;3.25;;;0.45;;
5774;SDS011;2913;51.120;6.772;2023-04-01T04:11:47;4.82;;;0.77;;
5774;SDS011;2913;51.120;6.772;2023-04-01T04:14:13;1.70;;;0.77;;
5774;SDS011;2913;51.120;6.772;2023-04-01T04:16:39;2.15;;;0.70;;
5774;SDS011;2913;51.120;6.772;2023-04-01T04:19:04;3.17;;;0.70;;
5774;SDS011;2913;51.120;6.772;2023-04-01T04:21:30;3.25;;;0.90;;
5774;SDS011;2913;51.120;6.772;2023-04-01T04:23:56;1.35;;;0.90;;
5774;SDS011;2913;51.120;6.772;2023-04-01T04:26:23;2.05;;;0.85;;
5774;SDS011;2913;51.120;6.772;2023-04-01T04:28:48;1.17;;;0.65;;
5774;SDS011;2913;51.120;6.772;2023-04-01T04:31:18;1.20;;;0.70;;
5774;SDS011;2913;51.120;6.772;2023-04-01T04:33:47;3.40;;;0.65;;
5774;SDS011;2913;51.120;6.772;2023-04-01T04:36:16;2.63;;;0.70;;
5774;SDS011;2913;51.120;6.772;2023-04-01T04:38:42;1.98;;;0.70;;
5774;SDS011;2913;51.120;6.772;2023-04-01T04:41:08;1.08;;;0.57;;
5774;SDS011;2913;51.120;6.772;2023-04-01T04:43:41;3.42;;;0.60;;
5774;SDS011;2913;51.120;6.772;2023-04-01T04:46:10;3.30;;;1.50;;
5774;SDS011;2913;51.120;6.772;2023-04-01T04:48:38;1.17;;;0.65;;
5774;SDS011;2913;51.120;6.772;2023-04-01T04:51:06;2.22;;;0.70;;
5774;SDS011;2913;51.120;6.772;2023-04-01T04:53:34;1.33;;;0.70;;
5774;SDS011;2913;51.120;6.772;2023-04-01T04:56:00;2.63;;;0.85;;
5774;SDS011;2913;51.120;6.772;2023-04-01T04:58:26;2.92;;;0.90;;
5774;SDS011;2913;51.120;6.772;2023-04-01T05:00:51;1.45;;;0.75;;
5774;SDS011;2913;51.120;6.772;2023-04-01T05:03:19;1.10;;;0.80;;
5774;SDS011;2913;51.120;6.772;2023-04-01T05:05:48;5.85;;;1.00;;
5774;SDS011;2913;51.120;6.772;2023-04-01T05:08:15;3.25;;;1.27;;
5774;SDS011;2913;51.120;6.772;2023-04-01T05:10:40;1.83;;;0.95;;
5774;SDS011;2913;51.120;6.772;2023-04-01T05:13:06;4.03;;;1.00;;
5774;SDS011;2913;51.120;6.772;2023-04-01T05:15:34;1.90;;;0.80;;
5774;SDS011;2913;51.120;6.772;2023-04-01T05:18:00;1.80;;;0.90;;
5774;SDS011;2913;51.120;6.772;2023-04-01T05:20:26;1.13;;;0.93;;
5774;SDS011;2913;51.120;6.772;2023-04-01T05:22:57;3.33;;;1.00;;
5774;SDS011;2913;51.120;6.772;2023-04-01T05:25:23;2.30;;;0.73;;
5774;SDS011;2913;51.120;6.772;2023-04-01T05:27:48;1.77;;;1.15;;
5774;SDS011;2913;51.120;6.772;2023-04-01T05:30:14;2.25;;;1.15;;
5774;SDS011;2913;51.120;6.772;2023-04-01T05:32:42;1.40;;;0.90;;
5774;SDS011;2913;51.120;6.772;2023-04-01T05:35:08;1.67;;;1.00;;
5774;SDS011;2913;51.120;6.772;2023-04-01T05:37:36;1.40;;;0.90;;
5774;SDS011;2913;51.120;6.772;2023-04-01T05:40:05;1.20;;;0.80;;
5774;SDS011;2913;51.120;6.772;2023-04-01T05:42:32;3.70;;;0.90;;
5774;SDS011;2913;51.120;6.772;2023-04-01T05:45:00;3.65;;;1.30;;
5774;SDS011;2913;51.120;6.772;2023-04-01T05:47:28;3.78;;;1.17;;
5774;SDS011;2913;51.120;6.772;2023-04-01T05:49:54;1.98;;;1.05;;
5774;SDS011;2913;51.120;6.772;2023-04-01T05:52:20;4.10;;;1.10;;
5774;SDS011;2913;51.120;6.772;2023-04-01T05:54:46;2.92;;;1.10;;
5774;SDS011;2913;51.120;6.772;2023-04-01T05:57:13;2.22;;;1.25;;
5774;SDS011;2913;51.120;6.772;2023-04-01T05:59:39;4.55;;;1.48;;
5774;SDS011;2913;51.120;6.772;2023-04-01T06:02:08;3.95;;;1.45;;
5774;SDS011;2913;51.120;6.772;2023-04-01T06:04:38;8.55;;;1.80;;
5774;SDS011;2913;51.120;6.772;2023-04-01T06:07:14;2.72;;;1.55;;
5774;SDS011;2913;51.120;6.772;2023-04-01T06:09:41;2.67;;;1.63;;
5774;SDS011;2913;51.120;6.772;2023-04-01T06:25:43;8.07;;;2.00;;
5774;SDS011;2913;51.120;6.772;2023-04-01T06:31:02;8.68;;;2.30;;
5774;SDS011;2913;51.120;6.772;2023-04-01T06:36:33;2.50;;;1.70;;
5774;SDS011;2913;51.120;6.772;2023-04-01T06:56:45;6.25;;;2.17;;
5774;SDS011;2913;51.120;6.772;2023-04-01T06:59:17;4.97;;;2.15;;
5774;SDS011;2913;51.120;6.772;2023-04-01T07:01:47;4.13;;;1.80;;
5774;SDS011;2913;51.120;6.772;2023-04-01T07:04:21;5.40;;;2.13;;
5774;SDS011;2913;51.120;6.772;2023-04-01T07:07:27;5.47;;;2.00;;
5774;SDS011;2913;51.120;6.772;2023-04-01T07:09:53;5.75;;;2.00;;
5774;SDS011;2913;51.120;6.772;2023-04-01T07:15:02;5.40;;;1.90;;
5774;SDS011;2913;51.120;6.772;2023-04-01T07:17:40;4.15;;;1.98;;
5774;SDS011;2913;51.120;6.772;2023-04-01T07:20:13;5.63;;;2.20;;
5774;SDS011;2913;51.120;6.772;2023-04-01T07:22:45;6.80;;;1.95;;
5774;SDS011;2913;51.120;6.772;2023-04-01T07:25:18;5.30;;;2.45;;
5774;SDS011;2913;51.120;6.772;2023-04-01T07:27:47;6.22;;;2.17;;
5774;SDS011;2913;51.120;6.772;2023-04-01T07:30:18;5.18;;;2.53;;
5774;SDS011;2913;51.120;6.772;2023-04-01T07:46:08;5.22;;;2.40;;
5774;SDS011;2913;51.120;6.772;2023-04-01T07:48:55;6.53;;;2.60;;
5774;SDS011;2913;51.120;6.772;2023-04-01T07:56:55;7.68;;;2.22;;
5774;SDS011;2913;51.120;6.772;2023-04-01T08:10:20;2.75;;;1.77;;
5774;SDS011;2913;51.120;6.772;2023-04-01T08:18:08;5.63;;;2.00;;
5774;SDS011;2913;51.120;6.772;2023-04-01T08:23:30;5.70;;;2.55;;
5774;SDS011;2913;51.120;6.772;2023-04-01T08:28:41;3.65;;;2.15;;
5774;SDS011;2913;51.120;6.772;2023-04-01T08:33:40;5.53;;;2.28;;
5774;SDS011;2913;51.120;6.772;2023-04-01T08:36:43;8.38;;;2.55;;
5774;SDS011;2913;51.120;6.772;2023-04-01T08:39:06;5.90;;;2.10;;
5774;SDS011;2913;51.120;6.772;2023-04-01T08:56:06;2.58;;;1.90;;
5774;SDS011;2913;51.120;6.772;2023-04-01T09:09:55;4.10;;;2.20;;
5774;SDS011;2913;51.120;6.772;2023-04-01T09:15:25;3.10;;;2.20;;
5774;SDS011;2913;51.120;6.772;2023-04-01T09:23:47;6.32;;;2.70;;
5774;SDS011;2913;51.120;6.772;2023-04-01T09:29:10;4.25;;;2.53;;
5774;SDS011;2913;51.120;6.772;2023-04-01T09:50:26;9.52;;;4.57;;
5774;SDS011;2913;51.120;6.772;2023-04-01T09:53:14;9.68;;;4.90;;
5774;SDS011;2913;51.120;6.772;2023-04-01T10:15:23;13.43;;;5.20;;
5774;SDS011;2913;51.120;6.772;2023-04-01T10:29:06;8.73;;;5.10;;
5774;SDS011;2913;51.120;6.772;2023-04-01T10:37:52;8.95;;;4.20;;
5774;SDS011;2913;51.120;6.772;2023-04-01T10:55:03;8.55;;;5.15;;
5774;SDS011;2913;51.120;6.772;2023-04-01T10:57:46;7.97;;;4.97;;
5774;SDS011;2913;51.120;6.772;2023-04-01T11:14:37;9.75;;;4.75;;
5774;SDS011;2913;51.120;6.772;2023-04-01T11:17:17;10.27;;;5.90;;
5774;SDS011;2913;51.120;6.772;2023-04-01T11:20:06;11.40;;;6.43;;
5774;SDS011;2913;51.120;6.772;2023-04-01T11:36:16;13.95;;;6.22;;
5774;SDS011;2913;51.120;6.772;2023-04-01T11:41:49;16.17;;;6.00;;
5774;SDS011;2913;51.120;6.772;2023-04-01T11:44:26;8.27;;;5.75;;
5774;SDS011;2913;51.120;6.772;2023-04-01T11:47:15;9.98;;;5.10;;
5774;SDS011;2913;51.120;6.772;2023-04-01T11:52:59;10.15;;;5.63;;
5774;SDS011;2913;51.120;6.772;2023-04-01T12:06:05;9.20;;;5.40;;
5774;SDS011;2913;51.120;6.772;2023-04-01T12:14:07;8.38;;;5.57;;
5774;SDS011;2913;51.120;6.772;2023-04-01T12:21:58;9.07;;;5.63;;
5774;SDS011;2913;51.120;6.772;2023-04-01T12:27:35;13.88;;;5.55;;
5774;SDS011;2913;51.120;6.772;2023-04-01T12:44:37;8.93;;;4.93;;
5774;SDS011;2913;51.120;6.772;2023-04-01T12:47:23;8.80;;;5.40;;
5774;SDS011;2913;51.120;6.772;2023-04-01T13:10:01;9.43;;;5.78;;
5774;SDS011;2913;51.120;6.772;2023-04-01T13:15:41;12.20;;;6.00;;
5774;SDS011;2913;51.120;6.772;2023-04-01T13:26:29;11.60;;;5.57;;
5774;SDS011;2913;51.120;6.772;2023-04-01T13:34:33;13.85;;;7.72;;
5774;SDS011;2913;51.120;6.772;2023-04-01T13:37:28;9.40;;;5.60;;
5774;SDS011;2913;51.120;6.772;2023-04-01T14:24:36;9.63;;;5.80;;
5774;SDS011;2913;51.120;6.772;2023-04-01T14:44:23;8.32;;;5.20;;
5774;SDS011;2913;51.120;6.772;2023-04-01T14:55:52;9.45;;;4.82;;
5774;SDS011;2913;51.120;6.772;2023-04-01T14:58:21;10.52;;;6.20;;
5774;SDS011;2913;51.120;6.772;2023-04-01T15:03:45;8.50;;;5.25;;
5774;SDS011;2913;51.120;6.772;2023-04-01T15:09:27;13.35;;;6.30;;
5774;SDS011;2913;51.120;6.772;2023-04-01T15:20:08;12.02;;;6.50;;
5774;SDS011;2913;51.120;6.772;2023-04-01T15:23:02;14.85;;;6.53;;
5774;SDS011;2913;51.120;6.772;2023-04-01T15:25:45;14.25;;;6.28;;
5774;SDS011;2913;51.120;6.772;2023-04-01T15:31:11;7.93;;;4.55;;
5774;SDS011;2913;51.120;6.772;2023-04-01T15:42:26;9.32;;;5.22;;
5774;SDS011;2913;51.120;6.772;2023-04-01T15:45:03;13.73;;;5.47;;
5774;SDS011;2913;51.120;6.772;2023-04-01T15:47:46;10.80;;;6.07;;
5774;SDS011;2913;51.120;6.772;2023-04-01T16:06:43;10.70;;;6.25;;
5774;SDS011;2913;51.120;6.772;2023-04-01T16:22:26;8.50;;;4.40;;
5774;SDS011;2913;51.120;6.772;2023-04-01T16:25:17;8.18;;;4.32;;
5774;SDS011;2913;51.120;6.772;2023-04-01T16:30:48;7.13;;;4.38;;
5774;SDS011;2913;51.120;6.772;2023-04-01T16:36:45;10.00;;;4.85;;
5774;SDS011;2913;51.120;6.772;2023-04-01T16:39:19;8.75;;;4.90;;
5774;SDS011;2913;51.120;6.772;2023-04-01T16:44:31;15.13;;;7.15;;
5774;SDS011;2913;51.120;6.772;2023-04-01T16:47:50;13.40;;;6.32;;
5774;SDS011;2913;51.120;6.772;2023-04-01T16:50:39;9.30;;;5.38;;
5774;SDS011;2913;51.120;6.772;2023-04-01T16:55:50;9.30;;;4.97;;
5774;SDS011;2913;51.120;6.772;2023-04-01T16:58:56;6.25;;;4.05;;
5774;SDS011;2913;51.120;6.772;2023-04-01T17:01:29;6.85;;;4.45;;
5774;SDS011;2913;51.120;6.772;2023-04-01T17:04:23;8.38;;;5.03;;
5774;SDS011;2913;51.120;6.772;2023-04-01T17:12:38;7.78;;;4.80;;
5774;SDS011;2913;51.120;6.772;2023-04-01T17:20:35;6.93;;;3.97;;
5774;SDS011;2913;51.120;6.772;2023-04-01T17:23:29;7.43;;;4.45;;
5774;SDS011;2913;51.120;6.772;2023-04-01T17:31:44;15.07;;;8.15;;
5774;SDS011;2913;51.120;6.772;2023-04-01T17:40:40;8.20;;;3.65;;
5774;SDS011;2913;51.120;6.772;2023-04-01T17:42:52;8.93;;;4.63;;
5774;SDS011;2913;51.120;6.772;2023-04-01T17:45:44;9.23;;;4.32;;
5774;SDS011;2913;51.120;6.772;2023-04-01T17:48:24;8.32;;;4.45;;
5774;SDS011;2913;51.120;6.772;2023-04-01T17:56:19;8.02;;;4.93;;
5774;SDS011;2913;51.120;6.772;2023-04-01T17:59:07;7.38;;;4.80;;
5774;SDS011;2913;51.120;6.772;2023-04-01T18:16:20;12.77;;;7.35;;
5774;SDS011;2913;51.120;6.772;2023-04-01T18:23:56;10.80;;;5.80;;
5774;SDS011;2913;51.120;6.772;2023-04-01T18:26:33;7.70;;;4.13;;
5774;SDS011;2913;51.120;6.772;2023-04-01T18:31:47;8.82;;;4.00;;
5774;SDS011;2913;51.120;6.772;2023-04-01T18:34:37;7.82;;;5.20;;
5774;SDS011;2913;51.120;6.772;2023-04-01T18:42:42;12.93;;;7.03;;
5774;SDS011;2913;51.120;6.772;2023-04-01T18:51:13;11.73;;;5.15;;
5774;SDS011;2913;51.120;6.772;2023-04-01T18:53:57;8.30;;;4.93;;
5774;SDS011;2913;51.120;6.772;2023-04-01T18:56:28;8.63;;;5.55;;
5774;SDS011;2913;51.120;6.772;2023-04-01T19:04:56;21.38;;;9.93;;
5774;SDS011;2913;51.120;6.772;2023-04-01T19:07:58;21.10;;;11.40;;
5774;SDS011;2913;51.120;6.772;2023-04-01T19:21:19;19.77;;;9.13;;
5774;SDS011;2913;51.120;6.772;2023-04-01T19:24:07;23.50;;;11.85;;
5774;SDS011;2913;51.120;6.772;2023-04-01T19:38:23;13.43;;;7.28;;
5774;SDS011;2913;51.120;6.772;2023-04-01T19:54:04;20.02;;;10.05;;
5774;SDS011;2913;51.120;6.772;2023-04-01T19:56:45;19.95;;;10.02;;
5774;SDS011;2913;51.120;6.772;2023-04-01T19:59:21;22.48;;;10.50;;
5774;SDS011;2913;51.120;6.772;2023-04-01T20:04:40;19.75;;;9.10;;
5774;SDS011;2913;51.120;6.772;2023-04-01T20:13:01;18.40;;;9.20;;
5774;SDS011;2913;51.120;6.772;2023-04-01T20:15:45;18.83;;;9.32;;
5774;SDS011;2913;51.120;6.772;2023-04-01T20:18:23;18.33;;;9.18;;
5774;SDS011;2913;51.120;6.772;2023-04-01T20:20:59;30.17;;;9.90;;
5774;SDS011;2913;51.120;6.772;2023-04-01T20:23:45;14.77;;;8.25;;
5774;SDS011;2913;51.120;6.772;2023-04-01T20:26:23;15.63;;;8.13;;
5774;SDS011;2913;51.120;6.772;2023-04-01T20:48:24;14.75;;;8.00;;
5774;SDS011;2913;51.120;6.772;2023-04-01T20:51:05;17.90;;;7.95;;
5774;SDS011;2913;51.120;6.772;2023-04-01T20:53:51;18.00;;;8.95;;
5774;SDS011;2913;51.120;6.772;2023-04-01T21:08:22;21.15;;;8.70;;
5774;SDS011;2913;51.120;6.772;2023-04-01T21:13:58;25.65;;;9.77;;
5774;SDS011;2913;51.120;6.772;2023-04-01T21:17:10;15.35;;;8.10;;
5774;SDS011;2913;51.120;6.772;2023-04-01T21:27:32;22.25;;;9.32;;
5774;SDS011;2913;51.120;6.772;2023-04-01T21:32:49;20.52;;;10.45;;
5774;SDS011;2913;51.120;6.772;2023-04-01T21:35:44;16.42;;;9.40;;
5774;SDS011;2913;51.120;6.772;2023-04-01T21:41:31;16.48;;;7.25;;
5774;SDS011;2913;51.120;6.772;2023-04-01T21:44:27;28.10;;;13.15;;
5774;SDS011;2913;51.120;6.772;2023-04-01T21:49:57;18.65;;;9.18;;
5774;SDS011;2913;51.120;6.772;2023-04-01T22:09:08;15.27;;;5.57;;
5774;SDS011;2913;51.120;6.772;2023-04-01T22:11:46;11.75;;;6.20;;
5774;SDS011;2913;51.120;6.772;2023-04-01T22:14:21;8.60;;;5.43;;
5774;SDS011;2913;51.120;6.772;2023-04-01T22:25:56;15.45;;;7.70;;
5774;SDS011;2913;51.120;6.772;2023-04-01T22:31:29;14.43;;;7.15;;
5774;SDS011;2913;51.120;6.772;2023-04-01T22:34:23;15.35;;;7.82;;
5774;SDS011;2913;51.120;6.772;2023-04-01T22:37:07;16.20;;;7.28;;
5774;SDS011;2913;51.120;6.772;2023-04-01T22:45:24;21.42;;;9.65;;
5774;SDS011;2913;51.120;6.772;2023-04-01T22:48:10;15.88;;;8.82;;
5774;SDS011;2913;51.120;6.772;2023-04-01T23:01:50;21.02;;;9.13;;
5774;SDS011;2913;51.120;6.772;2023-04-01T23:04:32;18.00;;;9.50;;
5774;SDS011;2913;51.120;6.772;2023-04-01T23:07:04;17.42;;;9.75;;
5774;SDS011;2913;51.120;6.772;2023-04-01T23:09:47;15.88;;;7.95;;
5774;SDS011;2913;51.120;6.772;2023-04-01T23:12:18;22.77;;;11.35;;
5774;SDS011;2913;51.120;6.772;2023-04-01T23:14:52;17.20;;;8.98;;
5774;SDS011;2913;51.120;6.772;2023-04-01T23:35:48;14.48;;;7.65;;
5774;SDS011;2913;51.120;6.772;2023-04-01T23:38:29;17.80;;;8.88;;
5774;SDS011;2913;51.120;6.772;2023-04-01T23:41:01;15.43;;;8.48;;
5774;SDS011;2913;51.120;6.772;2023-04-01T23:43:30;16.48;;;9.13;;
5774;SDS011;2913;51.120;6.772;2023-04-01T23:46:01;21.73;;;10.38;;
5774;SDS011;2913;51.120;6.772;2023-04-01T23:48:40;15.15;;;9.05;;
5774;SDS011;2913;51.120;6.772;2023-04-01T23:51:12;13.85;;;7.70;;
5774;SDS011;2913;51.120;6.772;2023-04-01T23:53:43;15.25;;;9.65;;
5774;SDS011;2913;51.120;6.772;2023-04-01T23:56:17;15.80;;;7.88;;
5774;SDS011;2913;51.120;6.772;2023-04-01T23:58:50;17.50;;;9.35;;
